Twin Oaks (599, 859) Station Data

Red Flag Warning: No
Fire Weather Zone: 250
SDGE Region: North East
Lat/Lon: 33.194/-117.153

Observations

Time Wind Speed/Gust Temp(F) RH Fuel Moist Fuel Temp(F) Dewpt(F) Tmax(F) Tmin(F) Accum Precip 10-min Precip SL Press(mb)
2/27 11:40pm 279 5 G 11 51° 100% - - 51° 55.5° 43.9° - - -
2/27 11:20pm 269 3 G 7 51° 100% - - 51° 55.5° 43.9° - - -
2/27 11:10pm 264 3 G 7 51° 100% - - 51° 55.5° 43.9° - - -
2/27 11:00pm 231 1 G 3 51° 100% - - 51° 55.5° 43.9° - - -
2/27 10:50pm 247 1 G 4 51° 100% - - 51° 55.5° 43.9° - - -
2/27 10:40pm 251 1 G 2 51° 100% - - 51° 55.5° 43.9° - - -
2/27 10:30pm 245 2 G 3 51° 100% - - 51° 55.5° 43.9° - - -
2/27 10:20pm 220 1 G 3 51° 100% - - 51° 55.5° 43.9° - - -
2/27 10:10pm 225 2 G 3 51° 100% - - 51° 55.5° 43.9° - - -
2/27 10:00pm 261 1 G 2 51° 100% - - 51° 55.5° 43.9° - - -
2/27 9:50pm 317 2 G 3 51° 100% - - 51° 55.5° 43.9° - - -
2/27 9:40pm 359 1 G 2 51° 100% - - 51° 55.5° 43.9° - - -
2/27 9:30pm 285 1 G 3 51° 100% - - 51° 55.5° 43.9° - - -
2/27 9:20pm 304 3 G 6 51° 100% - - 51° 55.5° 43.9° - - -
2/27 9:10pm 289 1 G 8 52° 100% - - 52° 55.5° 43.9° - - -
2/27 9:00pm 302 3 G 5 52° 100% - - 52° 55.5° 43.9° - - -
2/27 8:50pm 285 2 G 4 52° 100% - - 52° 55.5° 43.9° - - -
2/27 8:40pm 317 1 G 4 52° 100% - - 52° 55.5° 43.9° - - -
2/27 8:30pm 334 0 G 1 52° 100% - - 52° 55.5° 43.9° - - -
2/27 8:20pm 285 1 G 1 52° 100% - - 52° 55.5° 43.9° - - -
2/27 8:10pm 254 2 G 4 52° 100% - - 52° 55.5° 43.9° - - -
2/27 8:00pm 292 0 G 2 52° 100% - - 52° 55.5° 43.9° - - -
2/27 7:50pm 271 1 G 3 52° 100% - - 52° 55.5° 43.9° - - -
2/27 7:40pm 266 2 G 5 52° 100% - - 53° 55.5° 43.9° - - -
2/27 7:30pm 254 4 G 8 53° 100% - - 53° 55.5° 43.9° - - -
2/27 7:20pm 216 5 G 11 53° 100% - - 53° 55.5° 43.9° - - -
2/27 7:10pm 195 6 G 11 53° 100% - - 53° 55.5° 43.9° - - -
2/27 7:00pm 178 7 G 10 53° 100% - - 53° 55.5° 43.9° - - -
2/27 6:50pm 198 10 G 17 53° 100% - - 53° 55.5° 43.9° - - -
2/27 6:40pm 214 8 G 15 54° 100% - - 54° 55.5° 43.9° - - -
2/27 6:30pm 225 8 G 15 54° 100% - - 54° 55.5° 43.9° - - -
2/27 6:20pm 228 10 G 18 54° 100% - - 54° 55.5° 43.9° - - -
2/27 6:10pm 214 13 G 21 54° 100% - - 54° 55.5° 43.9° - - -
2/27 6:00pm 210 13 G 22 54° 100% - - 54° 55.5° 43.9° - - -
2/27 5:50pm 200 12 G 20 54° 100% - - 54° 55.5° 43.9° - - -
2/27 5:40pm 198 11 G 21 54° 100% - - 54° 55.5° 43.9° - - -
2/27 5:30pm 198 12 G 20 55° 100% - - 55° 55.5° 43.9° - - -
2/27 5:20pm 203 13 G 25 54° 100% - - 54° 55.5° 43.9° - - -
2/27 5:10pm 201 14 G 23 54° 100% - - 54° 55.5° 43.9° - - -